Time;durP1;ratioP1;P1;durP2;ratioP2;P2;SDS_P1;SDS_P2;PMS_P1;PMS_P2;Temp;Humidity;BMP_temperature;BMP_pressure;BME280_temperature;BME280_humidity;BME280_pressure;Samples;Min_cycle;Max_cycle;Signal;HPM_P1;HPM_P2
2021/07/01 06:38:51;;;;;;;;;;;;;;;;;;5858812;22;19925;-58
2021/07/01 06:41:17;;;;;;;;;;;;;;;;;;5020107;28;19929;-54
2021/07/01 06:43:43;;;;;;;;;;;;;;;;;;5029890;28;19955;-54
2021/07/01 06:46:09;;;;;;;;;;;;;;;;;;5030026;28;19948;-61
2021/07/01 06:48:35;;;;;;;;;;;;;;;;;;5028383;28;19972;-58
2021/07/01 06:51:01;;;;;;;;;;;;;;;;;;5030839;28;19959;-60
2021/07/01 06:53:27;;;;;;;;;;;;;;;;;;5029648;28;20225;-58
2021/07/01 06:55:53;;;;;;;;;;;;;;;;;;5030124;28;19905;-62
2021/07/01 06:58:19;;;;;;;;;;;;;;;;;;5030729;28;19909;-50
2021/07/01 07:00:45;;;;;;;;;;;;;;;;;;5030476;28;19919;-53
2021/07/01 07:03:11;;;;;;;;;;;;;;;;;;5030775;28;19920;-56
2021/07/01 07:05:36;;;;;;;;;;;;;;;;;;5031112;28;20421;-57
2021/07/01 07:08:05;;;;;;;;;;;;;;;;;;5030909;28;19929;-51
2021/07/01 07:10:31;;;;;;;;;;;;;;;;;;5013424;28;20003;-52
2021/07/01 07:13:00;;;;;;;;;;;;;;;;;;5030567;28;19995;-49
2021/07/01 07:15:29;;;;;;;;;;;;;;;;;;5031361;28;19963;-48
2021/07/01 07:17:55;;;;;;;;;;;;;;;;;;5030726;28;19948;-49
2021/07/01 07:20:21;;;;;;;;;;;;;;;;;;5030834;28;19913;-50
2021/07/01 07:22:47;;;;;;;;;;;;;;;;;;5030583;28;20015;-55
2021/07/01 07:25:13;;;;;;;;;;;;;;;;;;5031709;28;19972;-51
2021/07/01 07:27:39;;;;;;;;;;;;;;;;;;5030687;28;19905;-51
2021/07/01 07:30:06;;;;;;;;;;;;;;;;;;5026341;28;19941;-57
2021/07/01 07:32:32;;;;;;;;;;;;;;;;;;5030399;28;19921;-55
2021/07/01 07:34:58;;;;;;;;;;;;;;;;;;5031313;28;19974;-56
2021/07/01 07:37:24;;;;;;;;;;;;;;;;;;5030537;28;19910;-52
2021/07/01 07:39:49;;;;;;;;;;;;;;;;;;5030360;28;20020;-55
2021/07/01 07:42:15;;;;;;;;;;;;;;;;;;5030614;28;19986;-55
2021/07/01 07:44:41;;;;;;;;;;;;;;;;;;5030863;28;20314;-53
2021/07/01 07:47:07;;;;;;;;;;;;;;;;;;5012867;28;19974;-55
2021/07/01 07:49:33;;;;;;;;;;;;;;;;;;5030811;28;20312;-53
2021/07/01 07:52:02;;;;;;;;;;;;;;;;;;5030491;28;19905;-50
2021/07/01 07:54:29;;;;;;;;;;;;;;;;;;5030577;28;19944;-52
2021/07/01 07:56:56;;;;;;;;;;;;;;;;;;5030692;28;19959;-56
2021/07/01 07:59:22;;;;;;;;;;;;;;;;;;5030552;28;19913;-55
2021/07/01 08:01:48;;;;;;;;;;;;;;;;;;5030524;28;20372;-56
2021/07/01 08:04:16;;;;;;;;;;;;;;;;;;5012287;28;19948;-55
2021/07/01 08:06:45;;;;;;;;;;;;;;;;;;5017881;28;19905;-51
2021/07/01 08:09:11;;;;;;;;;;;;;;;;;;5030322;28;20381;-56
2021/07/01 08:11:37;;;;;;;;;;;;;;;;;;5012647;28;19913;-54
2021/07/01 08:14:02;;;;;;;;;;;;;;;;;;5012360;28;19927;-50
2021/07/01 08:16:28;;;;;;;;;;;;;;;;;;5030469;28;20111;-53
2021/07/01 08:18:54;;;;;;;;;;;;;;;;;;5029436;28;19956;-51
2021/07/01 08:21:21;;;;;;;;;;;;;;;;;;5035570;28;20019;-53
2021/07/01 08:23:46;;;;;;;;;;;;;;;;;;5019211;28;19905;-53
2021/07/01 08:26:15;;;;;;;;;;;;;;;;;;5029917;28;20238;-55
2021/07/01 08:28:41;;;;;;;;;;;;;;;;;;5029849;28;19909;-55
2021/07/01 08:31:07;;;;;;;;;;;;;;;;;;5031083;28;19905;-49
2021/07/01 08:33:33;;;;;;;;;;;;;;;;;;5029601;28;19958;-56
2021/07/01 08:35:59;;;;;;;;;;;;;;;;;;5029824;28;19905;-57
2021/07/01 08:38:25;;;;;;;;;;;;;;;;;;5030484;28;19928;-56
2021/07/01 08:40:51;;;;;;;;;;;;;;;;;;5030346;28;19960;-49
2021/07/01 08:43:19;;;;;;;;;;;;;;;;;;5030012;28;20368;-53
2021/07/01 08:45:45;;;;;;;;;;;;;;;;;;5029728;28;19970;-53
2021/07/01 08:48:11;;;;;;;;;;;;;;;;;;5029750;28;20408;-54
2021/07/01 08:50:37;;;;;;;;;;;;;;;;;;5033818;28;20336;-56
2021/07/01 08:53:03;;;;;;;;;;;;;;;;;;5040009;28;20024;-55
2021/07/01 08:55:29;;;;;;;;;;;;;;;;;;5030054;28;19924;-49
2021/07/01 08:57:55;;;;;;;;;;;;;;;;;;5029572;28;19916;-50
2021/07/01 09:00:20;;;;;;;;;;;;;;;;;;5030655;28;19913;-51
2021/07/01 09:02:47;;;;;;;;;;;;;;;;;;5030079;28;20395;-49
2021/07/01 09:05:13;;;;;;;;;;;;;;;;;;5030018;28;19913;-53
2021/07/01 09:07:39;;;;;;;;;;;;;;;;;;5029663;28;19957;-53
2021/07/01 09:10:05;;;;;;;;;;;;;;;;;;5029950;28;19989;-56
2021/07/01 09:12:32;;;;;;;;;;;;;;;;;;5041360;28;19905;-53
2021/07/01 09:14:58;;;;;;;;;;;;;;;;;;5031357;28;19935;-57
2021/07/01 09:17:24;;;;;;;;;;;;;;;;;;5031185;28;20238;-57
2021/07/01 09:19:50;;;;;;;;;;;;;;;;;;5032915;28;19960;-56
2021/07/01 09:22:16;;;;;;;;;;;;;;;;;;5024023;28;19971;-57
2021/07/01 09:24:42;;;;;;;;;;;;;;;;;;5028237;28;19909;-55
2021/07/01 09:27:08;;;;;;;;;;;;;;;;;;5014969;28;19956;-55
2021/07/01 09:29:34;;;;;;;;;;;;;;;;;;5032817;28;19909;-59
2021/07/01 09:32:00;;;;;;;;;;;;;;;;;;5033163;28;20277;-55
2021/07/01 09:34:26;;;;;;;;;;;;;;;;;;5033129;28;19963;-54
2021/07/01 09:36:52;;;;;;;;;;;;;;;;;;5032676;28;20423;-56
2021/07/01 09:39:22;;;;;;;;;;;;;;;;;;5032358;28;19933;-54
2021/07/01 09:41:48;;;;;;;;;;;;;;;;;;5032042;28;20062;-54
2021/07/01 09:44:14;;;;;;;;;;;;;;;;;;5033145;28;20035;-57
2021/07/01 09:46:40;;;;;;;;;;;;;;;;;;5042462;28;20314;-54
2021/07/01 09:49:09;;;;;;;;;;;;;;;;;;5035013;28;19939;-53
2021/07/01 09:51:35;;;;;;;;;;;;;;;;;;5032633;28;19905;-55
2021/07/01 09:54:01;;;;;;;;;;;;;;;;;;5031783;28;20392;-54
2021/07/01 09:56:27;;;;;;;;;;;;;;;;;;5032756;28;19915;-56
2021/07/01 09:58:56;;;;;;;;;;;;;;;;;;5032281;28;19911;-56
2021/07/01 10:01:23;;;;;;;;;;;;;;;;;;5032180;28;19913;-55
2021/07/01 10:03:48;;;;;;;;;;;;;;;;;;5030172;28;19944;-56
2021/07/01 10:06:15;;;;;;;;;;;;;;;;;;5031522;28;19951;-57
2021/07/01 10:08:41;;;;;;;;;;;;;;;;;;5031846;28;19921;-56
2021/07/01 10:11:07;;;;;;;;;;;;;;;;;;5015423;28;19916;-57
2021/07/01 10:13:33;;;;;;;;;;;;;;;;;;5032347;28;19909;-57
2021/07/01 10:15:59;;;;;;;;;;;;;;;;;;5044493;28;20426;-56
2021/07/01 10:18:26;;;;;;;;;;;;;;;;;;5032497;28;20273;-56
2021/07/01 10:20:53;;;;;;;;;;;;;;;;;;5032019;28;19920;-57
2021/07/01 10:23:19;;;;;;;;;;;;;;;;;;5018695;28;19979;-57
2021/07/01 10:25:45;;;;;;;;;;;;;;;;;;5030905;28;20317;-57
2021/07/01 10:28:11;;;;;;;;;;;;;;;;;;5031816;28;20000;-56
2021/07/01 10:30:38;;;;;;;;;;;;;;;;;;5032539;28;20422;-57
2021/07/01 10:33:04;;;;;;;;;;;;;;;;;;5036036;28;20118;-57
2021/07/01 10:35:30;;;;;;;;;;;;;;;;;;5031895;28;20000;-56
2021/07/01 10:37:56;;;;;;;;;;;;;;;;;;5013713;28;19905;-58
2021/07/01 10:40:21;;;;;;;;;;;;;;;;;;5031620;28;19975;-57
2021/07/01 10:42:47;;;;;;;;;;;;;;;;;;5031417;28;19905;-57
2021/07/01 10:45:13;;;;;;;;;;;;;;;;;;5031779;28;19925;-57
2021/07/01 10:47:39;;;;;;;;;;;;;;;;;;5030420;28;19905;-56
2021/07/01 10:50:05;;;;;;;;;;;;;;;;;;5031493;28;19963;-57
2021/07/01 10:52:31;;;;;;;;;;;;;;;;;;5036418;28;19912;-58
2021/07/01 10:54:57;;;;;;;;;;;;;;;;;;5038753;28;19909;-57
2021/07/01 10:57:28;;;;;;;;;;;;;;;;;;5031321;28;19909;-56
2021/07/01 10:59:54;;;;;;;;;;;;;;;;;;5031049;28;20322;-57
2021/07/01 11:02:20;;;;;;;;;;;;;;;;;;5031129;28;19992;-56
2021/07/01 11:04:46;;;;;;;;;;;;;;;;;;5030909;28;19905;-58
2021/07/01 11:07:12;;;;;;;;;;;;;;;;;;5030647;28;19911;-56
2021/07/01 11:09:38;;;;;;;;;;;;;;;;;;5030743;28;19905;-58
2021/07/01 11:12:03;;;;;;;;;;;;;;;;;;5038448;28;20399;-57
2021/07/01 11:14:29;;;;;;;;;;;;;;;;;;5037445;28;20266;-58
2021/07/01 11:16:55;;;;;;;;;;;;;;;;;;5029967;28;19908;-57
2021/07/01 11:19:21;;;;;;;;;;;;;;;;;;5030333;28;19904;-57
2021/07/01 11:21:47;;;;;;;;;;;;;;;;;;5025836;28;20311;-57
2021/07/01 11:24:13;;;;;;;;;;;;;;;;;;5022672;28;19956;-58
2021/07/01 11:26:39;;;;;;;;;;;;;;;;;;5029556;28;20323;-57
2021/07/01 11:29:09;;;;;;;;;;;;;;;;;;5028121;28;20032;-57
2021/07/01 11:31:35;;;;;;;;;;;;;;;;;;5029968;28;19915;-56
2021/07/01 11:34:01;;;;;;;;;;;;;;;;;;5030901;28;19905;-55
2021/07/01 11:36:27;;;;;;;;;;;;;;;;;;5030101;28;19909;-57
2021/07/01 11:38:53;;;;;;;;;;;;;;;;;;5030286;28;20380;-55
2021/07/01 11:41:19;;;;;;;;;;;;;;;;;;5030019;28;19919;-56
2021/07/01 11:43:46;;;;;;;;;;;;;;;;;;5030720;28;19948;-59
2021/07/01 11:46:12;;;;;;;;;;;;;;;;;;5030997;28;20004;-55
2021/07/01 11:48:38;;;;;;;;;;;;;;;;;;5030851;28;20227;-56
2021/07/01 11:51:04;;;;;;;;;;;;;;;;;;5030052;28;19905;-58
2021/07/01 11:53:30;;;;;;;;;;;;;;;;;;5030655;28;19905;-58
2021/07/01 11:55:59;;;;;;;;;;;;;;;;;;5042609;28;19931;-57
2021/07/01 11:58:25;;;;;;;;;;;;;;;;;;5029711;28;19992;-52
2021/07/01 12:00:51;;;;;;;;;;;;;;;;;;5030395;28;20390;-50
2021/07/01 12:03:17;;;;;;;;;;;;;;;;;;5012520;28;19912;-51
2021/07/01 12:05:43;;;;;;;;;;;;;;;;;;5030786;28;20004;-53
2021/07/01 12:08:09;;;;;;;;;;;;;;;;;;5030068;28;19949;-50
2021/07/01 12:10:35;;;;;;;;;;;;;;;;;;5031372;28;19958;-49
2021/07/01 12:13:01;;;;;;;;;;;;;;;;;;5012796;28;19995;-52
2021/07/01 12:15:27;;;;;;;;;;;;;;;;;;5013310;28;19912;-53
2021/07/01 12:17:54;;;;;;;;;;;;;;;;;;5029735;28;20337;-50
2021/07/01 12:20:20;;;;;;;;;;;;;;;;;;5040159;28;20306;-51
2021/07/01 12:22:46;;;;;;;;;;;;;;;;;;5033934;28;19905;-51
2021/07/01 12:25:12;;;;;;;;;;;;;;;;;;5012741;28;19944;-52
2021/07/01 12:27:39;;;;;;;;;;;;;;;;;;5030813;28;19955;-53
2021/07/01 12:30:05;;;;;;;;;;;;;;;;;;5030781;28;19916;-51
2021/07/01 12:32:31;;;;;;;;;;;;;;;;;;5030720;28;19905;-53
2021/07/01 12:34:57;;;;;;;;;;;;;;;;;;5030397;28;20000;-53
2021/07/01 12:37:23;;;;;;;;;;;;;;;;;;5030171;28;19913;-53
2021/07/01 12:39:49;;;;;;;;;;;;;;;;;;5011925;28;20067;-53
2021/07/01 12:42:15;;;;;;;;;;;;;;;;;;5029789;28;19909;-49
2021/07/01 12:44:44;;;;;;;;;;;;;;;;;;5031318;28;20358;-53
2021/07/01 12:47:11;;;;;;;;;;;;;;;;;;5030209;28;20403;-54
2021/07/01 12:49:37;;;;;;;;;;;;;;;;;;5029997;28;19967;-54
2021/07/01 12:52:07;;;;;;;;;;;;;;;;;;5045929;28;21068;-54
2021/07/01 12:54:33;;;;;;;;;;;;;;;;;;5043871;28;19905;-55
2021/07/01 12:57:02;;;;;;;;;;;;;;;;;;5033237;28;19905;-53
2021/07/01 12:59:28;;;;;;;;;;;;;;;;;;5033069;28;19948;-56
2021/07/01 13:01:56;;;;;;;;;;;;;;;;;;5033038;28;20015;-55
2021/07/01 13:04:22;;;;;;;;;;;;;;;;;;5033641;28;19905;-54
2021/07/01 13:06:48;;;;;;;;;;;;;;;;;;5033450;28;20765;-53
2021/07/01 13:09:13;;;;;;;;;;;;;;;;;;5032820;28;20038;-51
2021/07/01 13:11:39;;;;;;;;;;;;;;;;;;5032865;28;19916;-52
2021/07/01 13:14:05;;;;;;;;;;;;;;;;;;5034008;28;19905;-50
2021/07/01 13:16:31;;;;;;;;;;;;;;;;;;5033562;28;19905;-52
2021/07/01 13:18:57;;;;;;;;;;;;;;;;;;5033049;28;20390;-52
2021/07/01 13:21:23;;;;;;;;;;;;;;;;;;5030824;28;19979;-51
2021/07/01 13:23:49;;;;;;;;;;;;;;;;;;5021752;28;19909;-54
2021/07/01 13:26:15;;;;;;;;;;;;;;;;;;5032593;28;19901;-53
2021/07/01 13:28:41;;;;;;;;;;;;;;;;;;5032649;28;19923;-50
2021/07/01 13:31:09;;;;;;;;;;;;;;;;;;5028954;28;19913;-50
2021/07/01 13:33:35;;;;;;;;;;;;;;;;;;5032814;28;19901;-55
2021/07/01 13:36:01;;;;;;;;;;;;;;;;;;5046315;28;19993;-52
2021/07/01 13:38:27;;;;;;;;;;;;;;;;;;5032112;28;20004;-51
2021/07/01 13:40:54;;;;;;;;;;;;;;;;;;5030398;28;19921;-58
2021/07/01 13:43:20;;;;;;;;;;;;;;;;;;5032820;28;20321;-56
2021/07/01 13:45:46;;;;;;;;;;;;;;;;;;5032405;28;19983;-59
2021/07/01 13:48:12;;;;;;;;;;;;;;;;;;5031749;28;19927;-57
2021/07/01 13:50:37;;;;;;;;;;;;;;;;;;5031389;28;20265;-59
2021/07/01 13:53:03;;;;;;;;;;;;;;;;;;5031521;28;19916;-57
2021/07/01 13:55:29;;;;;;;;;;;;;;;;;;5031915;28;19960;-55
2021/07/01 13:57:55;;;;;;;;;;;;;;;;;;5032146;28;20245;-52
2021/07/01 14:00:21;;;;;;;;;;;;;;;;;;5032556;28;20333;-53
2021/07/01 14:02:48;;;;;;;;;;;;;;;;;;5031737;28;19905;-50
2021/07/01 14:05:14;;;;;;;;;;;;;;;;;;5032289;28;19905;-52
2021/07/01 14:07:40;;;;;;;;;;;;;;;;;;5032116;28;19905;-54
2021/07/01 14:10:06;;;;;;;;;;;;;;;;;;5030880;28;19962;-53
2021/07/01 14:12:31;;;;;;;;;;;;;;;;;;5032317;28;19905;-56
2021/07/01 14:14:57;;;;;;;;;;;;;;;;;;5032739;28;19988;-58
2021/07/01 14:17:23;;;;;;;;;;;;;;;;;;5032560;28;19905;-54
2021/07/01 14:19:49;;;;;;;;;;;;;;;;;;5032156;28;19979;-56
2021/07/01 14:22:15;;;;;;;;;;;;;;;;;;5023757;28;19906;-57
2021/07/01 14:24:41;;;;;;;;;;;;;;;;;;5027875;28;20027;-58
2021/07/01 14:27:09;;;;;;;;;;;;;;;;;;5032806;28;20264;-57
2021/07/01 14:29:35;;;;;;;;;;;;;;;;;;5034730;28;19908;-55
2021/07/01 14:32:01;;;;;;;;;;;;;;;;;;5029827;28;20396;-54
2021/07/01 14:34:27;;;;;;;;;;;;;;;;;;5031195;28;19987;-51
2021/07/01 14:36:55;;;;;;;;;;;;;;;;;;5031499;28;19916;-54
2021/07/01 14:39:21;;;;;;;;;;;;;;;;;;5017690;28;20365;-54
2021/07/01 14:41:47;;;;;;;;;;;;;;;;;;5031409;28;20586;-56
2021/07/01 14:44:13;;;;;;;;;;;;;;;;;;5031304;28;20226;-55
2021/07/01 14:46:40;;;;;;;;;;;;;;;;;;5031632;28;19992;-54
2021/07/01 14:49:06;;;;;;;;;;;;;;;;;;5030991;28;19927;-55
2021/07/01 14:51:33;;;;;;;;;;;;;;;;;;5030982;28;20016;-54
2021/07/01 14:53:59;;;;;;;;;;;;;;;;;;5031670;28;19912;-54
2021/07/01 14:56:24;;;;;;;;;;;;;;;;;;5030866;28;19909;-55
2021/07/01 14:58:50;;;;;;;;;;;;;;;;;;5019648;28;19936;-56
2021/07/01 15:01:19;;;;;;;;;;;;;;;;;;5030865;28;20258;-50
2021/07/01 15:03:45;;;;;;;;;;;;;;;;;;5030446;28;20251;-53
2021/07/01 15:06:11;;;;;;;;;;;;;;;;;;5012422;28;19928;-54
2021/07/01 15:08:37;;;;;;;;;;;;;;;;;;5030782;28;19923;-54
2021/07/01 15:11:02;;;;;;;;;;;;;;;;;;5011880;28;19943;-55
2021/07/01 15:13:28;;;;;;;;;;;;;;;;;;5030397;28;19909;-56
2021/07/01 15:15:54;;;;;;;;;;;;;;;;;;5026611;28;20085;-58
2021/07/01 15:18:20;;;;;;;;;;;;;;;;;;5024148;28;19925;-57
2021/07/01 15:20:46;;;;;;;;;;;;;;;;;;5021821;28;20000;-59
2021/07/01 15:23:13;;;;;;;;;;;;;;;;;;5024672;28;20001;-58
2021/07/01 15:25:39;;;;;;;;;;;;;;;;;;5025340;28;20472;-58
2021/07/01 15:28:05;;;;;;;;;;;;;;;;;;5007033;28;19936;-58
2021/07/01 15:30:31;;;;;;;;;;;;;;;;;;5020233;28;20519;-60
2021/07/01 15:32:57;;;;;;;;;;;;;;;;;;5025075;28;19936;-59
2021/07/01 15:35:23;;;;;;;;;;;;;;;;;;5019516;28;19916;-56
2021/07/01 15:37:48;;;;;;;;;;;;;;;;;;5008628;28;19944;-54
2021/07/01 15:40:14;;;;;;;;;;;;;;;;;;5026493;28;19968;-57
2021/07/01 15:42:41;;;;;;;;;;;;;;;;;;5028068;28;20355;-60
2021/07/01 15:45:07;;;;;;;;;;;;;;;;;;5031766;28;19905;-61
2021/07/01 15:47:33;;;;;;;;;;;;;;;;;;5021295;28;19909;-61
2021/07/01 15:50:01;;;;;;;;;;;;;;;;;;5028229;28;20013;-60
2021/07/01 15:52:32;;;;;;;;;;;;;;;;;;5029989;28;20033;-60
2021/07/01 15:54:58;;;;;;;;;;;;;;;;;;5011390;28;20296;-60
2021/07/01 15:57:25;;;;;;;;;;;;;;;;;;5030243;28;19919;-60
2021/07/01 15:59:51;;;;;;;;;;;;;;;;;;5028004;28;19913;-60
2021/07/01 16:02:17;;;;;;;;;;;;;;;;;;5012010;28;19979;-59
2021/07/01 16:04:48;;;;;;;;;;;;;;;;;;5011641;28;20728;-60
2021/07/01 16:07:14;;;;;;;;;;;;;;;;;;5011110;28;19909;-59
2021/07/01 16:09:43;;;;;;;;;;;;;;;;;;5030271;28;19912;-59
2021/07/01 16:12:09;;;;;;;;;;;;;;;;;;5029762;28;20441;-59
2021/07/01 16:14:35;;;;;;;;;;;;;;;;;;5030796;28;19917;-61
2021/07/01 16:17:01;;;;;;;;;;;;;;;;;;5030113;28;20306;-60
2021/07/01 16:19:27;;;;;;;;;;;;;;;;;;5029542;28;19927;-60
2021/07/01 16:21:56;;;;;;;;;;;;;;;;;;5029374;28;19920;-60
2021/07/01 16:24:25;;;;;;;;;;;;;;;;;;5012326;28;20376;-60
2021/07/01 16:26:51;;;;;;;;;;;;;;;;;;5032059;28;20417;-60
2021/07/01 16:29:19;;;;;;;;;;;;;;;;;;5028388;28;19905;-60
2021/07/01 16:31:48;;;;;;;;;;;;;;;;;;5020493;28;19915;-59
2021/07/01 16:34:14;;;;;;;;;;;;;;;;;;5033630;28;20381;-60
2021/07/01 16:36:42;;;;;;;;;;;;;;;;;;5033847;28;19944;-60
2021/07/01 16:39:10;;;;;;;;;;;;;;;;;;5033493;28;20364;-60
2021/07/01 16:41:39;;;;;;;;;;;;;;;;;;5015991;28;19960;-59
2021/07/01 16:44:05;;;;;;;;;;;;;;;;;;5032602;28;19985;-60
2021/07/01 16:46:34;;;;;;;;;;;;;;;;;;5030634;28;20437;-59
2021/07/01 16:49:00;;;;;;;;;;;;;;;;;;5026427;28;19956;-59
2021/07/01 16:51:26;;;;;;;;;;;;;;;;;;5025045;28;20008;-59
2021/07/01 16:53:52;;;;;;;;;;;;;;;;;;5022145;28;20030;-59
2021/07/01 16:56:18;;;;;;;;;;;;;;;;;;5025565;28;20022;-59
2021/07/01 16:58:44;;;;;;;;;;;;;;;;;;5023785;28;19909;-60
2021/07/01 17:01:10;;;;;;;;;;;;;;;;;;5023807;28;19988;-59
2021/07/01 17:03:36;;;;;;;;;;;;;;;;;;5027815;28;20281;-59
2021/07/01 17:06:02;;;;;;;;;;;;;;;;;;5032915;28;19909;-59
2021/07/01 17:08:28;;;;;;;;;;;;;;;;;;5033410;28;19912;-60
2021/07/01 17:10:55;;;;;;;;;;;;;;;;;;5032934;28;19931;-59
2021/07/01 17:13:20;;;;;;;;;;;;;;;;;;5033874;28;19999;-60
2021/07/01 17:15:46;;;;;;;;;;;;;;;;;;5015990;28;19940;-59
2021/07/01 17:18:12;;;;;;;;;;;;;;;;;;5024395;28;19909;-60
2021/07/01 17:20:38;;;;;;;;;;;;;;;;;;5032924;28;20390;-60
2021/07/01 17:23:04;;;;;;;;;;;;;;;;;;5032779;28;19928;-61
2021/07/01 17:25:30;;;;;;;;;;;;;;;;;;5032833;28;19913;-59
2021/07/01 17:27:58;;;;;;;;;;;;;;;;;;5020131;28;19920;-60
2021/07/01 17:30:24;;;;;;;;;;;;;;;;;;5036252;28;19905;-60
2021/07/01 17:32:53;;;;;;;;;;;;;;;;;;5033385;28;19939;-60
2021/07/01 17:35:21;;;;;;;;;;;;;;;;;;5032881;28;20360;-62
2021/07/01 17:37:47;;;;;;;;;;;;;;;;;;5032496;28;19943;-60
2021/07/01 17:40:13;;;;;;;;;;;;;;;;;;5023770;28;19924;-64
2021/07/01 17:42:45;;;;;;;;;;;;;;;;;;5021041;28;19905;-62
2021/07/01 17:45:11;;;;;;;;;;;;;;;;;;5004962;28;19905;-61
2021/07/01 17:47:39;;;;;;;;;;;;;;;;;;5018373;28;19913;-60
2021/07/01 17:50:05;;;;;;;;;;;;;;;;;;5032089;28;19912;-61
2021/07/01 17:52:31;;;;;;;;;;;;;;;;;;5032894;28;20382;-60
2021/07/01 17:54:57;;;;;;;;;;;;;;;;;;5032020;28;19960;-60
2021/07/01 17:57:23;;;;;;;;;;;;;;;;;;5030816;28;20063;-59
2021/07/01 17:59:49;;;;;;;;;;;;;;;;;;5014080;28;20889;-60
2021/07/01 18:02:15;;;;;;;;;;;;;;;;;;5013993;28;19995;-60
2021/07/01 18:04:41;;;;;;;;;;;;;;;;;;5032176;28;19944;-61
2021/07/01 18:07:07;;;;;;;;;;;;;;;;;;5032224;28;20003;-60
2021/07/01 18:09:33;;;;;;;;;;;;;;;;;;5014437;28;19924;-61
2021/07/01 18:11:59;;;;;;;;;;;;;;;;;;5032987;28;19980;-60
2021/07/01 18:14:25;;;;;;;;;;;;;;;;;;5014400;28;20016;-59
2021/07/01 18:16:51;;;;;;;;;;;;;;;;;;5041923;28;19917;-61
2021/07/01 18:19:17;;;;;;;;;;;;;;;;;;5032104;28;19909;-59
2021/07/01 18:21:43;;;;;;;;;;;;;;;;;;5031795;28;19913;-60
2021/07/01 18:24:09;;;;;;;;;;;;;;;;;;5031758;28;19905;-60
2021/07/01 18:26:35;;;;;;;;;;;;;;;;;;5032188;28;20329;-62
2021/07/01 18:29:01;;;;;;;;;;;;;;;;;;5032500;28;20269;-61
2021/07/01 18:31:27;;;;;;;;;;;;;;;;;;5026878;28;19912;-61
2021/07/01 18:33:53;;;;;;;;;;;;;;;;;;5013608;28;19905;-61
2021/07/01 18:36:21;;;;;;;;;;;;;;;;;;5013822;28;19913;-60
2021/07/01 18:38:47;;;;;;;;;;;;;;;;;;5031303;28;19905;-60
2021/07/01 18:41:13;;;;;;;;;;;;;;;;;;5032227;28;19960;-59
2021/07/01 18:43:42;;;;;;;;;;;;;;;;;;5013905;28;19975;-60
2021/07/01 18:46:12;;;;;;;;;;;;;;;;;;5031256;28;20011;-59
2021/07/01 18:48:38;;;;;;;;;;;;;;;;;;5030946;28;19905;-61
2021/07/01 18:51:04;;;;;;;;;;;;;;;;;;5030277;28;19905;-61
2021/07/01 18:53:30;;;;;;;;;;;;;;;;;;5013021;28;19912;-61
2021/07/01 18:55:59;;;;;;;;;;;;;;;;;;5030771;28;20241;-60
2021/07/01 18:58:25;;;;;;;;;;;;;;;;;;5030724;28;19905;-60
2021/07/01 19:00:51;;;;;;;;;;;;;;;;;;5030939;28;19964;-60
2021/07/01 19:03:17;;;;;;;;;;;;;;;;;;5030927;28;19905;-60
2021/07/01 19:05:45;;;;;;;;;;;;;;;;;;5030824;28;20092;-61
2021/07/01 19:08:11;;;;;;;;;;;;;;;;;;5025175;28;19909;-60
2021/07/01 19:10:37;;;;;;;;;;;;;;;;;;5031602;28;19911;-60
2021/07/01 19:13:03;;;;;;;;;;;;;;;;;;5031550;28;19916;-59
2021/07/01 19:15:29;;;;;;;;;;;;;;;;;;5031949;28;20365;-60
2021/07/01 19:17:55;;;;;;;;;;;;;;;;;;5031426;28;19909;-60
2021/07/01 19:20:24;;;;;;;;;;;;;;;;;;5030163;28;20373;-60
2021/07/01 19:22:50;;;;;;;;;;;;;;;;;;5031278;28;20271;-60
2021/07/01 19:25:16;;;;;;;;;;;;;;;;;;5013567;28;19905;-60
2021/07/01 19:27:42;;;;;;;;;;;;;;;;;;5031068;28;19974;-60
2021/07/01 19:30:08;;;;;;;;;;;;;;;;;;5019854;28;19909;-60
2021/07/01 19:32:34;;;;;;;;;;;;;;;;;;5030453;28;20268;-60
2021/07/01 19:35:00;;;;;;;;;;;;;;;;;;5030349;28;20003;-60
2021/07/01 19:37:31;;;;;;;;;;;;;;;;;;5030532;28;19905;-60
2021/07/01 19:39:57;;;;;;;;;;;;;;;;;;5029804;28;20357;-61
2021/07/01 19:42:23;;;;;;;;;;;;;;;;;;5029719;28;19908;-60
2021/07/01 19:44:49;;;;;;;;;;;;;;;;;;5030280;28;19909;-61
2021/07/01 19:47:15;;;;;;;;;;;;;;;;;;5030213;28;19921;-61
2021/07/01 19:49:42;;;;;;;;;;;;;;;;;;5030250;28;20266;-59
2021/07/01 19:52:08;;;;;;;;;;;;;;;;;;5012535;28;20285;-61
2021/07/01 19:54:34;;;;;;;;;;;;;;;;;;5030400;28;20361;-60
2021/07/01 19:57:02;;;;;;;;;;;;;;;;;;5030664;28;19995;-60
2021/07/01 19:59:28;;;;;;;;;;;;;;;;;;5030166;28;19931;-61
2021/07/01 20:01:55;;;;;;;;;;;;;;;;;;5030053;28;19977;-61
2021/07/01 20:04:23;;;;;;;;;;;;;;;;;;5028428;28;19996;-61
2021/07/01 20:06:50;;;;;;;;;;;;;;;;;;5030538;28;20011;-61
2021/07/01 20:09:18;;;;;;;;;;;;;;;;;;5029923;28;20290;-62
2021/07/01 20:11:49;;;;;;;;;;;;;;;;;;5012196;28;19947;-60
2021/07/01 20:14:17;;;;;;;;;;;;;;;;;;5017665;28;19970;-61
2021/07/01 20:16:43;;;;;;;;;;;;;;;;;;5030649;28;19905;-61
2021/07/01 20:19:09;;;;;;;;;;;;;;;;;;5043795;28;19944;-61
2021/07/01 20:21:35;;;;;;;;;;;;;;;;;;5029969;28;20436;-62
2021/07/01 20:24:01;;;;;;;;;;;;;;;;;;5029391;28;19952;-61
2021/07/01 20:26:27;;;;;;;;;;;;;;;;;;5029583;28;19931;-62
2021/07/01 20:28:53;;;;;;;;;;;;;;;;;;5027552;28;20369;-62
2021/07/01 20:31:19;;;;;;;;;;;;;;;;;;5028972;28;19909;-60
2021/07/01 20:33:45;;;;;;;;;;;;;;;;;;5029613;28;19909;-60
2021/07/01 20:36:11;;;;;;;;;;;;;;;;;;5016900;28;20583;-60
2021/07/01 20:38:40;;;;;;;;;;;;;;;;;;5030214;28;19987;-62
2021/07/01 20:41:06;;;;;;;;;;;;;;;;;;5012019;28;19925;-60
2021/07/01 20:43:34;;;;;;;;;;;;;;;;;;5029503;28;19908;-61
2021/07/01 20:46:00;;;;;;;;;;;;;;;;;;5029585;28;19927;-59
2021/07/01 20:48:26;;;;;;;;;;;;;;;;;;5029538;28;20337;-60
2021/07/01 20:50:53;;;;;;;;;;;;;;;;;;5029617;28;19970;-61
2021/07/01 20:53:22;;;;;;;;;;;;;;;;;;5029743;28;19909;-60
2021/07/01 20:55:48;;;;;;;;;;;;;;;;;;5029410;28;19905;-60
2021/07/01 20:58:14;;;;;;;;;;;;;;;;;;5029783;28;20241;-60
2021/07/01 21:00:40;;;;;;;;;;;;;;;;;;5029555;28;19944;-61
2021/07/01 21:03:06;;;;;;;;;;;;;;;;;;5029822;28;19913;-61
2021/07/01 21:05:32;;;;;;;;;;;;;;;;;;5028801;28;20060;-61
2021/07/01 21:07:58;;;;;;;;;;;;;;;;;;5029526;28;19958;-61
2021/07/01 21:10:24;;;;;;;;;;;;;;;;;;5011510;28;19932;-60
2021/07/01 21:12:50;;;;;;;;;;;;;;;;;;5012143;28;19909;-61
2021/07/01 21:15:16;;;;;;;;;;;;;;;;;;5033030;28;20297;-61
2021/07/01 21:17:42;;;;;;;;;;;;;;;;;;5015202;28;19905;-61
2021/07/01 21:20:09;;;;;;;;;;;;;;;;;;5015149;28;20039;-60
2021/07/01 21:22:35;;;;;;;;;;;;;;;;;;5014469;28;20339;-60
2021/07/01 21:25:01;;;;;;;;;;;;;;;;;;5033129;28;20095;-59
2021/07/01 21:27:30;;;;;;;;;;;;;;;;;;5033267;28;20004;-61
2021/07/01 21:29:56;;;;;;;;;;;;;;;;;;5030034;28;19909;-60
2021/07/01 21:32:22;;;;;;;;;;;;;;;;;;5031020;28;19905;-61
2021/07/01 21:34:48;;;;;;;;;;;;;;;;;;5033007;28;20230;-60
2021/07/01 21:37:17;;;;;;;;;;;;;;;;;;5032686;28;20011;-60
2021/07/01 21:39:45;;;;;;;;;;;;;;;;;;5014805;28;20374;-60
2021/07/01 21:42:11;;;;;;;;;;;;;;;;;;5033134;28;19920;-60
2021/07/01 21:44:37;;;;;;;;;;;;;;;;;;5033861;28;20301;-61
2021/07/01 21:47:03;;;;;;;;;;;;;;;;;;5015474;28;19916;-61
2021/07/01 21:49:31;;;;;;;;;;;;;;;;;;5032524;28;19913;-61
2021/07/01 21:51:57;;;;;;;;;;;;;;;;;;5032433;28;19912;-60
2021/07/01 21:54:23;;;;;;;;;;;;;;;;;;5032617;28;19981;-60
2021/07/01 21:56:49;;;;;;;;;;;;;;;;;;5044687;28;19909;-60
2021/07/01 21:59:18;;;;;;;;;;;;;;;;;;5033478;28;19916;-60
2021/07/01 22:01:44;;;;;;;;;;;;;;;;;;5031697;28;19983;-69
